createdAt,value
2018-06-25T04:00:56.766Z,5.40
2018-06-25T04:01:56.612Z,18.40
2018-06-25T04:03:49.315Z,16.50
2018-06-25T04:04:49.177Z,17.70
2018-06-25T04:06:41.855Z,18.50
2018-06-25T04:07:41.749Z,18.30
2018-06-25T04:09:35.097Z,17.70
2018-06-25T04:10:34.336Z,16.00
2018-06-25T04:12:27.017Z,17.40
2018-06-25T04:13:26.908Z,18.90
2018-06-25T04:15:19.607Z,19.70
2018-06-25T04:16:19.480Z,19.90
2018-06-25T04:18:12.156Z,19.50
2018-06-25T04:19:12.095Z,20.20
2018-06-25T04:21:04.751Z,20.30
2018-06-25T04:22:04.624Z,22.60
2018-06-25T04:23:57.300Z,19.30
2018-06-25T04:24:57.199Z,21.00
2018-06-25T04:26:49.900Z,22.80
2018-06-25T04:27:49.765Z,20.60
2018-06-25T04:29:42.445Z,20.20
2018-06-25T04:30:42.369Z,21.70
2018-06-25T04:32:35.035Z,21.10
2018-06-25T04:33:34.910Z,20.10
2018-06-25T04:35:27.591Z,23.90
2018-06-25T04:36:27.484Z,22.00
2018-06-25T04:38:20.192Z,21.00
2018-06-25T04:39:20.061Z,23.60
2018-06-25T04:41:12.889Z,19.70
2018-06-25T04:42:12.627Z,22.50
2018-06-25T04:44:05.331Z,23.10
2018-06-25T04:45:05.205Z,22.20
2018-06-25T04:46:57.872Z,21.40
2018-06-25T04:47:57.772Z,20.80
2018-06-25T04:49:50.466Z,22.60
2018-06-25T04:50:50.339Z,23.40
2018-06-25T04:52:43.067Z,23.70
2018-06-25T04:53:42.956Z,22.00
2018-06-25T04:55:35.657Z,23.90
2018-06-25T04:56:35.533Z,24.50
2018-06-25T04:58:28.234Z,22.90
2018-06-25T04:59:28.138Z,21.90
2018-06-25T05:01:20.866Z,24.10
2018-06-25T05:02:20.741Z,26.70
2018-06-25T05:04:13.417Z,22.80
2018-06-25T05:05:13.318Z,24.10
2018-06-25T05:07:06.007Z,24.60
2018-06-25T05:08:05.885Z,22.40
2018-06-25T05:09:58.558Z,26.00
2018-06-25T05:10:58.453Z,23.10
2018-06-25T05:12:51.156Z,24.30
2018-06-25T05:13:51.025Z,20.90
2018-06-25T05:15:43.703Z,23.40
2018-06-25T05:16:43.596Z,23.20
2018-06-25T05:18:36.299Z,24.00
2018-06-25T05:19:36.168Z,21.20
2018-06-25T05:21:28.844Z,24.40
2018-06-25T05:22:28.734Z,24.60
2018-06-25T05:24:21.446Z,25.00
2018-06-25T05:25:21.315Z,22.60
2018-06-25T05:27:13.990Z,22.40
2018-06-25T05:28:13.888Z,24.90
2018-06-25T05:30:06.580Z,21.30
2018-06-25T05:31:06.458Z,23.00
2018-06-25T05:32:59.137Z,23.00
2018-06-25T05:33:59.026Z,23.40
2018-06-25T05:35:51.729Z,24.60
2018-06-25T05:36:51.599Z,23.80
2018-06-25T05:38:44.282Z,21.40
2018-06-25T05:39:44.196Z,25.60
2018-06-25T05:41:36.876Z,20.60
2018-06-25T05:42:36.750Z,25.40
2018-06-25T05:44:29.426Z,23.60
2018-06-25T05:45:29.324Z,20.00
2018-06-25T05:47:22.019Z,21.00
2018-06-25T05:48:21.897Z,22.80
2018-06-25T05:50:14.579Z,20.90
2018-06-25T05:51:14.487Z,21.30
2018-06-25T05:53:07.170Z,22.10
2018-06-25T05:54:07.052Z,24.00
2018-06-25T05:55:59.724Z,24.10
2018-06-25T05:56:59.622Z,21.10
2018-06-25T05:58:52.355Z,20.70
2018-06-25T05:59:52.197Z,22.10
2018-06-25T06:01:44.887Z,20.30
2018-06-25T06:02:44.777Z,21.60
2018-06-25T06:04:37.470Z,19.80
2018-06-25T06:05:37.350Z,19.20
2018-06-25T06:07:30.034Z,22.50
2018-06-25T06:08:29.930Z,17.90
2018-06-25T06:10:22.626Z,18.30
2018-06-25T06:11:22.511Z,18.00
2018-06-25T06:13:15.181Z,17.10
2018-06-25T06:14:15.076Z,18.70
2018-06-25T06:16:07.940Z,18.90
2018-06-25T06:17:07.653Z,18.90
2018-06-25T06:19:00.337Z,18.90
2018-06-25T06:20:00.242Z,16.80
2018-06-25T06:21:52.939Z,19.50
2018-06-25T06:22:52.810Z,18.80
2018-06-25T06:24:45.496Z,16.60
2018-06-25T06:25:45.392Z,18.50
2018-06-25T06:27:38.097Z,14.60
2018-06-25T06:28:37.972Z,15.90
2018-06-25T06:30:30.656Z,17.20
2018-06-25T06:31:30.556Z,17.80
2018-06-25T06:33:23.267Z,16.60
2018-06-25T06:34:23.141Z,15.10
2018-06-25T06:36:15.817Z,17.20
2018-06-25T06:37:15.712Z,17.70
2018-06-25T06:39:08.411Z,16.80
2018-06-25T06:40:08.311Z,13.90
2018-06-25T06:42:00.970Z,21.30
2018-06-25T06:43:00.870Z,17.40
2018-06-25T06:44:53.576Z,17.50
2018-06-25T06:45:53.453Z,19.10
2018-06-25T06:47:46.133Z,17.50
2018-06-25T06:48:46.029Z,15.90
2018-06-25T06:50:38.734Z,21.40
2018-06-25T06:51:38.605Z,18.40
2018-06-25T06:53:31.286Z,18.40
2018-06-25T06:54:31.187Z,18.70
2018-06-25T06:56:23.881Z,18.00
2018-06-25T06:57:23.768Z,17.50
2018-06-25T06:59:16.445Z,16.70
2018-06-25T07:00:16.343Z,17.80
2018-06-25T07:02:09.046Z,16.50
2018-06-25T07:03:08.922Z,17.00
2018-06-25T07:05:01.602Z,15.30
2018-06-25T07:06:01.495Z,14.20
2018-06-25T07:07:54.200Z,16.60
2018-06-25T07:08:54.077Z,15.00
2018-06-25T07:10:46.759Z,14.20
2018-06-25T07:11:46.665Z,14.70
2018-06-25T07:13:39.359Z,13.00
2018-06-25T07:14:39.238Z,13.00
2018-06-25T07:16:31.924Z,13.70
2018-06-25T07:17:31.821Z,13.50
2018-06-25T07:19:24.525Z,12.20
2018-06-25T07:20:24.401Z,13.20
2018-06-25T07:22:17.089Z,11.80
2018-06-25T07:23:16.990Z,10.60
2018-06-25T07:25:09.714Z,10.80
2018-06-25T07:26:09.596Z,13.00
2018-06-25T07:28:02.288Z,11.50
2018-06-25T07:29:02.187Z,10.30
2018-06-25T07:30:54.892Z,12.30
2018-06-25T07:31:54.766Z,10.80
2018-06-25T07:33:47.454Z,11.50
2018-06-25T07:34:47.356Z,9.80
2018-06-25T07:36:40.073Z,11.00
2018-06-25T07:37:39.945Z,11.30
2018-06-25T07:39:32.624Z,9.60
2018-06-25T07:40:32.522Z,11.00
2018-06-25T07:42:25.242Z,12.00
2018-06-25T07:43:25.111Z,12.00
2018-06-25T07:45:17.797Z,12.20
2018-06-25T07:46:17.700Z,13.30
2018-06-25T07:48:10.406Z,10.90
2018-06-25T07:49:10.282Z,10.30
2018-06-25T07:51:03.114Z,10.20
2018-06-25T07:52:02.868Z,8.80
2018-06-25T07:53:55.568Z,9.30
2018-06-25T07:54:55.455Z,12.00
2018-06-25T07:56:48.139Z,9.90
2018-06-25T07:57:48.036Z,10.00
2018-06-25T07:59:40.751Z,12.70
2018-06-25T08:00:40.626Z,9.30
2018-06-25T08:02:33.309Z,10.50
2018-06-25T08:03:33.227Z,11.40
2018-06-25T08:05:26.072Z,11.60
2018-06-25T08:06:25.790Z,11.30
2018-06-25T08:08:18.480Z,10.50
2018-06-25T08:09:18.377Z,9.70
2018-06-25T08:11:11.082Z,11.00
2018-06-25T08:12:10.966Z,10.40
2018-06-25T08:14:03.657Z,10.90
2018-06-25T08:15:03.557Z,10.00
2018-06-25T08:16:56.419Z,10.30
2018-06-25T08:17:56.143Z,11.10
2018-06-25T08:19:48.828Z,11.10
2018-06-25T08:20:48.731Z,9.70
2018-06-25T08:22:41.440Z,10.30
2018-06-25T08:23:41.314Z,10.70
2018-06-25T08:25:34.149Z,11.00
2018-06-25T08:26:33.904Z,14.80
2018-06-25T08:28:26.607Z,13.40
2018-06-25T08:29:26.492Z,11.50
2018-06-25T08:31:19.181Z,12.20
2018-06-25T08:32:19.075Z,10.90
2018-06-25T08:34:11.972Z,10.80
2018-06-25T08:35:11.790Z,11.50
2018-06-25T08:37:04.520Z,12.00
2018-06-25T08:38:04.382Z,11.50
2018-06-25T08:39:57.100Z,11.60
2018-06-25T08:40:56.970Z,11.00
2018-06-25T08:42:49.655Z,11.40
2018-06-25T08:43:49.557Z,12.20
2018-06-25T08:45:42.257Z,11.40
2018-06-25T08:46:42.143Z,13.30
2018-06-25T08:48:34.832Z,12.60
2018-06-25T08:49:34.728Z,11.20
2018-06-25T08:51:27.447Z,10.80
2018-06-25T08:52:27.319Z,14.50
2018-06-25T08:54:20.005Z,10.60
2018-06-25T08:55:19.900Z,9.50
2018-06-25T08:57:12.618Z,10.20
2018-06-25T08:58:12.485Z,9.70
2018-06-25T09:00:05.180Z,10.40
2018-06-25T09:01:05.079Z,9.50
2018-06-25T09:02:57.838Z,9.30
2018-06-25T09:03:57.665Z,10.40
2018-06-25T09:05:50.357Z,9.50
2018-06-25T09:06:50.251Z,10.40
2018-06-25T09:08:42.969Z,9.40
2018-06-25T09:09:42.849Z,9.80
2018-06-25T09:11:35.538Z,9.00
2018-06-25T09:12:35.436Z,8.50
2018-06-25T09:14:28.146Z,8.00
2018-06-25T09:15:28.068Z,7.20
2018-06-25T09:17:20.717Z,7.10
2018-06-25T09:18:20.613Z,7.00
2018-06-25T09:20:13.325Z,5.20
2018-06-25T09:21:13.199Z,7.90
2018-06-25T09:23:05.890Z,7.90
2018-06-25T09:24:05.800Z,7.80
2018-06-25T09:25:58.515Z,9.40
2018-06-25T09:26:58.386Z,7.40
2018-06-25T09:28:51.071Z,7.30
2018-06-25T09:29:50.980Z,9.40
2018-06-25T09:31:43.700Z,7.60
2018-06-25T09:32:43.572Z,7.80
2018-06-25T09:34:36.268Z,6.90
2018-06-25T09:35:36.165Z,8.00
2018-06-25T09:37:28.882Z,8.60
2018-06-25T09:38:28.764Z,5.70
2018-06-25T09:40:21.463Z,7.80
2018-06-25T09:41:21.499Z,8.20
2018-06-25T09:43:14.066Z,7.10
2018-06-25T09:44:13.947Z,5.90
2018-06-25T09:46:06.663Z,6.90
2018-06-25T09:47:06.566Z,6.30
2018-06-25T09:48:59.286Z,7.10
2018-06-25T09:49:59.168Z,6.70
2018-06-25T09:51:51.861Z,6.00
2018-06-25T09:52:51.759Z,7.60
2018-06-25T09:54:44.510Z,7.40
2018-06-25T09:55:44.362Z,7.10
2018-06-25T09:57:37.063Z,7.10
2018-06-25T09:58:36.982Z,6.60
2018-06-25T10:00:29.668Z,6.40
2018-06-25T10:01:29.552Z,7.10
2018-06-25T10:03:22.253Z,4.00
2018-06-25T10:04:22.147Z,5.50
2018-06-25T10:06:15.024Z,7.30
2018-06-25T10:07:14.742Z,5.60
2018-06-25T10:09:07.440Z,6.70
2018-06-25T10:10:07.340Z,7.30
2018-06-25T10:12:00.084Z,7.20
2018-06-25T10:12:59.955Z,8.10
2018-06-25T10:14:52.648Z,8.00
2018-06-25T10:15:52.556Z,7.00
2018-06-25T10:17:45.266Z,6.60
2018-06-25T10:18:45.146Z,6.00
2018-06-25T10:20:37.841Z,6.60
2018-06-25T10:21:37.741Z,6.10
2018-06-25T10:23:30.450Z,5.30
2018-06-25T10:24:30.337Z,6.50
2018-06-25T10:26:23.028Z,6.50
2018-06-25T10:27:22.922Z,7.40
2018-06-25T10:29:15.640Z,5.90
2018-06-25T10:30:15.515Z,6.80
2018-06-25T10:32:08.209Z,5.40
2018-06-25T10:33:08.107Z,4.50
2018-06-25T10:35:00.813Z,5.60
2018-06-25T10:36:00.695Z,4.20
2018-06-25T10:37:53.387Z,4.90
2018-06-25T10:38:53.282Z,4.20
2018-06-25T10:40:45.997Z,6.60
2018-06-25T10:41:45.877Z,6.00
2018-06-25T10:43:38.568Z,5.90
2018-06-25T10:44:38.473Z,5.00
2018-06-25T10:46:31.183Z,4.10
2018-06-25T10:47:31.062Z,6.00
2018-06-25T10:49:23.746Z,5.10
2018-06-25T10:50:23.652Z,6.70
2018-06-25T10:52:16.357Z,7.10
2018-06-25T10:53:16.241Z,5.10
2018-06-25T10:55:08.931Z,6.90
2018-06-25T10:56:08.828Z,7.80
2018-06-25T10:58:01.544Z,5.60
2018-06-25T10:59:01.429Z,6.50
2018-06-25T11:00:54.118Z,4.80
2018-06-25T11:01:54.029Z,5.20
2018-06-25T11:03:46.740Z,4.70
2018-06-25T11:04:46.622Z,5.70
2018-06-25T11:06:39.314Z,5.80
2018-06-25T11:07:39.373Z,6.70
2018-06-25T11:09:31.923Z,7.00
2018-06-25T11:10:31.808Z,7.30
2018-06-25T11:12:24.502Z,5.90
2018-06-25T11:13:24.414Z,7.30
2018-06-25T11:15:17.120Z,5.30
2018-06-25T11:16:16.996Z,5.00
2018-06-25T11:18:09.693Z,6.60
2018-06-25T11:19:09.591Z,6.30
2018-06-25T11:21:02.451Z,4.60
2018-06-25T11:22:02.225Z,5.60
2018-06-25T11:23:54.904Z,6.70
2018-06-25T11:24:54.806Z,5.40
2018-06-25T11:26:47.570Z,5.60
2018-06-25T11:27:47.461Z,9.40
2018-06-25T11:29:40.105Z,7.10
2018-06-25T11:30:40.014Z,6.90
2018-06-25T11:32:32.723Z,5.10
2018-06-25T11:33:32.604Z,6.30
2018-06-25T11:35:25.301Z,6.40
2018-06-25T11:36:25.201Z,6.20
2018-06-25T11:38:17.922Z,5.70
2018-06-25T11:39:17.800Z,5.40
2018-06-25T11:41:10.491Z,5.90
2018-06-25T11:42:10.407Z,5.40
2018-06-25T11:44:03.109Z,6.60
2018-06-25T11:45:02.996Z,5.60
2018-06-25T11:46:55.685Z,4.80
2018-06-25T11:47:55.589Z,7.70
2018-06-25T11:49:48.312Z,5.80
2018-06-25T11:50:48.180Z,5.10
2018-06-25T11:52:40.888Z,4.30
2018-06-25T11:53:40.784Z,5.00
2018-06-25T11:55:33.505Z,5.30
2018-06-25T11:56:33.384Z,7.20
2018-06-25T11:58:26.077Z,7.00
2018-06-25T11:59:25.985Z,6.30
2018-06-25T12:01:18.700Z,5.10
2018-06-25T12:02:18.583Z,7.70
2018-06-25T12:04:11.275Z,4.80
2018-06-25T12:05:11.173Z,5.70
2018-06-25T12:07:03.898Z,5.10
2018-06-25T12:08:03.773Z,5.70
2018-06-25T12:09:56.464Z,5.50
2018-06-25T12:10:56.369Z,5.40
2018-06-25T12:12:49.079Z,6.50
2018-06-25T12:13:48.965Z,4.70
2018-06-25T12:15:41.668Z,5.20
2018-06-25T12:16:41.560Z,4.10
2018-06-25T12:18:34.279Z,5.10
2018-06-25T12:19:34.151Z,4.00
2018-06-25T12:21:26.843Z,4.60
2018-06-25T12:22:26.750Z,4.60
2018-06-25T12:24:19.456Z,4.50
2018-06-25T12:25:19.341Z,5.20
2018-06-25T12:27:12.034Z,6.50
2018-06-25T12:28:11.934Z,5.30
2018-06-25T12:30:04.713Z,4.60
2018-06-25T12:31:04.540Z,4.20
2018-06-25T12:32:57.231Z,4.10
2018-06-25T12:33:57.139Z,5.20
2018-06-25T12:35:49.856Z,5.10
2018-06-25T12:36:49.728Z,5.40
2018-06-25T12:38:42.428Z,4.20
2018-06-25T12:39:42.328Z,5.60
2018-06-25T12:41:35.099Z,6.10
2018-06-25T12:42:34.924Z,4.90
2018-06-25T12:44:27.618Z,5.10
2018-06-25T12:45:27.515Z,3.90
2018-06-25T12:47:20.249Z,4.10
2018-06-25T12:48:20.146Z,4.30
2018-06-25T12:50:12.803Z,6.70
2018-06-25T12:51:12.706Z,7.40
2018-06-25T12:53:05.418Z,5.10
2018-06-25T12:54:05.302Z,5.50
2018-06-25T12:55:57.994Z,4.50
2018-06-25T12:56:57.913Z,6.40
2018-06-25T12:58:50.614Z,5.40
2018-06-25T12:59:50.493Z,5.40
2018-06-25T13:01:43.190Z,4.20
2018-06-25T13:02:43.100Z,3.70
2018-06-25T13:04:35.818Z,5.80
2018-06-25T13:05:35.686Z,4.70
2018-06-25T13:07:28.384Z,7.00
2018-06-25T13:08:28.280Z,6.70
2018-06-25T13:10:21.004Z,4.30
2018-06-25T13:11:20.874Z,4.60
2018-06-25T13:13:13.575Z,4.90
2018-06-25T13:14:13.473Z,5.10
2018-06-25T13:16:06.186Z,5.30
2018-06-25T13:17:06.070Z,5.60
2018-06-25T13:18:58.761Z,6.30
2018-06-25T13:19:58.663Z,5.90
2018-06-25T13:21:51.390Z,4.60
2018-06-25T13:22:51.278Z,4.80
2018-06-25T13:24:43.967Z,3.90
2018-06-25T13:25:43.980Z,5.20
2018-06-25T13:27:36.585Z,5.00
2018-06-25T13:28:36.476Z,5.30
2018-06-25T13:30:29.154Z,4.90
2018-06-25T13:31:29.050Z,5.00
2018-06-25T13:33:21.761Z,4.80
2018-06-25T13:34:21.649Z,5.50
2018-06-25T13:36:14.340Z,5.70
2018-06-25T13:37:14.246Z,3.60
2018-06-25T13:39:06.966Z,7.20
2018-06-25T13:40:06.840Z,4.60
2018-06-25T13:41:59.529Z,4.50
2018-06-25T13:42:59.437Z,3.70
2018-06-25T13:44:52.149Z,4.40
2018-06-25T13:45:52.021Z,5.70
2018-06-25T13:47:44.718Z,5.50
2018-06-25T13:48:44.611Z,4.20
2018-06-25T13:50:37.321Z,5.10
2018-06-25T13:51:37.208Z,4.60
2018-06-25T13:53:29.895Z,4.10
2018-06-25T13:54:29.801Z,5.40
2018-06-25T13:56:22.507Z,5.00
2018-06-25T13:57:22.393Z,7.80
2018-06-25T13:59:15.082Z,5.80
2018-06-25T14:00:14.977Z,5.30
2018-06-25T14:02:07.859Z,5.30
2018-06-25T14:03:07.574Z,4.80
2018-06-25T14:05:00.756Z,5.50
2018-06-25T14:06:00.656Z,6.40
2018-06-25T14:07:53.364Z,4.90
2018-06-25T14:08:53.246Z,4.30
2018-06-25T14:10:45.938Z,4.30
2018-06-25T14:11:45.838Z,6.00
2018-06-25T14:13:38.553Z,4.60
2018-06-25T14:14:38.425Z,5.50
2018-06-25T14:16:31.228Z,4.40
2018-06-25T14:17:31.015Z,4.60
2018-06-25T14:19:23.733Z,6.90
2018-06-25T14:20:23.610Z,5.40
2018-06-25T14:22:16.294Z,3.80
2018-06-25T14:23:16.191Z,4.00
2018-06-25T14:25:08.905Z,4.80
2018-06-25T14:26:08.787Z,4.50
2018-06-25T14:28:01.488Z,4.00
2018-06-25T14:29:01.376Z,6.20
2018-06-25T14:30:54.090Z,4.40
2018-06-25T14:31:53.972Z,4.70
2018-06-25T14:33:46.710Z,6.00
2018-06-25T14:34:46.564Z,5.30
2018-06-25T14:36:39.270Z,3.70
2018-06-25T14:37:39.153Z,4.20
2018-06-25T14:39:31.852Z,4.50
2018-06-25T14:40:31.796Z,5.00
2018-06-25T14:42:24.472Z,6.80
2018-06-25T14:43:24.344Z,5.30
2018-06-25T14:45:17.130Z,4.10
2018-06-25T14:46:16.938Z,5.20
2018-06-25T14:48:09.798Z,4.10
2018-06-25T14:49:09.531Z,3.60
2018-06-25T14:51:02.224Z,4.70
2018-06-25T14:52:02.127Z,5.20
2018-06-25T14:53:54.840Z,3.90
2018-06-25T14:54:54.717Z,4.40
2018-06-25T14:56:47.410Z,4.00
2018-06-25T14:57:47.307Z,6.00
2018-06-25T14:59:40.032Z,7.10
2018-06-25T15:00:39.896Z,4.50
2018-06-25T15:02:33.112Z,5.10
2018-06-25T15:03:33.005Z,5.70
2018-06-25T15:05:25.718Z,5.50
2018-06-25T15:06:25.596Z,5.30
2018-06-25T15:08:18.784Z,6.40
2018-06-25T15:09:19.026Z,4.10
2018-06-25T15:11:11.434Z,4.10
2018-06-25T15:12:11.300Z,4.90
2018-06-25T15:14:04.006Z,4.10
2018-06-25T15:15:03.907Z,5.00
2018-06-25T15:16:56.673Z,5.00
2018-06-25T15:17:56.561Z,5.20
2018-06-25T15:19:49.746Z,4.60
2018-06-25T15:20:49.646Z,6.10
2018-06-25T15:22:42.847Z,3.70
2018-06-25T15:23:42.731Z,5.00
2018-06-25T15:25:35.913Z,3.70
2018-06-25T15:26:35.816Z,5.70
2018-06-25T15:28:28.523Z,3.60
2018-06-25T15:29:28.411Z,6.40
2018-06-25T15:31:21.097Z,4.70
2018-06-25T15:32:21.007Z,4.70
2018-06-25T15:34:13.699Z,4.70
2018-06-25T15:35:13.586Z,6.60
2018-06-25T15:37:06.282Z,7.30
2018-06-25T15:38:06.199Z,5.00
2018-06-25T15:39:58.885Z,5.70
2018-06-25T15:40:58.770Z,5.70
2018-06-25T15:42:51.458Z,4.40
2018-06-25T15:43:51.360Z,6.10
2018-06-25T15:45:44.068Z,5.10
2018-06-25T15:46:43.945Z,4.40
2018-06-25T15:48:36.645Z,4.00
2018-06-25T15:49:36.540Z,5.80
2018-06-25T15:51:29.747Z,5.10
2018-06-25T15:52:29.618Z,6.50
2018-06-25T15:54:22.307Z,3.80
2018-06-25T15:55:22.203Z,4.90
2018-06-25T15:57:15.407Z,6.40
2018-06-25T15:58:15.289Z,5.00
2018-06-25T16:00:08.010Z,5.50
2018-06-25T16:01:07.874Z,4.90
2018-06-25T16:03:01.073Z,5.30
2018-06-25T16:04:00.955Z,4.30
2018-06-25T16:05:53.655Z,3.70
2018-06-25T16:06:53.569Z,5.20
2018-06-25T16:08:46.253Z,6.90
2018-06-25T16:09:46.140Z,5.20
2018-06-25T16:11:38.825Z,8.40
2018-06-25T16:12:38.729Z,5.80
2018-06-25T16:14:31.440Z,5.70
2018-06-25T16:15:31.317Z,10.10
2018-06-25T16:17:24.010Z,5.20
2018-06-25T16:18:23.942Z,5.10
2018-06-25T16:20:16.642Z,4.80
2018-06-25T16:21:16.500Z,4.60
2018-06-25T16:23:09.185Z,5.30
2018-06-25T16:24:09.092Z,4.80
2018-06-25T16:26:01.798Z,5.00
2018-06-25T16:27:01.675Z,4.60
2018-06-25T16:28:54.361Z,4.80
2018-06-25T16:29:54.266Z,5.00
2018-06-25T16:31:46.977Z,5.60
2018-06-25T16:32:46.857Z,6.70
2018-06-25T16:34:41.056Z,5.10
2018-06-25T16:35:40.940Z,4.80
2018-06-25T16:37:34.117Z,4.90
2018-06-25T16:38:34.020Z,4.50
2018-06-25T16:40:26.733Z,5.00
2018-06-25T16:41:26.609Z,4.40
2018-06-25T16:43:19.292Z,5.40
2018-06-25T16:44:19.198Z,6.40
2018-06-25T16:46:11.909Z,5.00
2018-06-25T16:47:11.782Z,5.40
2018-06-25T16:49:04.964Z,5.70
2018-06-25T16:50:04.873Z,5.40
2018-06-25T16:51:57.576Z,6.40
2018-06-25T16:52:57.455Z,5.00
2018-06-25T16:54:50.167Z,6.90
2018-06-25T16:55:50.072Z,4.00
2018-06-25T16:57:43.292Z,8.30
2018-06-25T16:58:43.167Z,6.00
2018-06-25T17:00:35.855Z,5.00
2018-06-25T17:01:35.753Z,5.90
2018-06-25T17:03:28.475Z,6.80
2018-06-25T17:04:28.356Z,4.90
2018-06-25T17:06:21.057Z,5.70
2018-06-25T17:07:20.947Z,6.40
2018-06-25T17:09:14.168Z,6.10
2018-06-25T17:10:14.045Z,4.70
2018-06-25T17:12:06.741Z,6.30
2018-06-25T17:13:06.638Z,4.70
2018-06-25T17:14:59.860Z,6.40
2018-06-25T17:15:59.734Z,7.10
2018-06-25T17:17:52.426Z,5.30
2018-06-25T17:18:52.323Z,5.20
2018-06-25T17:20:45.524Z,5.50
2018-06-25T17:21:45.406Z,5.40
2018-06-25T17:23:38.642Z,6.40
2018-06-25T17:24:38.490Z,6.20
2018-06-25T17:26:31.703Z,6.40
2018-06-25T17:27:31.569Z,6.30
2018-06-25T17:29:24.254Z,5.60
2018-06-25T17:30:24.160Z,4.20
2018-06-25T17:32:17.380Z,5.70
2018-06-25T17:33:17.246Z,5.00
2018-06-25T17:35:10.432Z,6.90
2018-06-25T17:36:10.327Z,5.30
2018-06-25T17:38:03.044Z,4.70
2018-06-25T17:39:02.915Z,6.90
2018-06-25T17:40:56.089Z,5.90
2018-06-25T17:41:56.029Z,6.10
2018-06-25T17:43:48.710Z,5.40
2018-06-25T17:44:48.584Z,5.00
2018-06-25T17:46:41.774Z,5.70
2018-06-25T17:47:41.680Z,4.40
2018-06-25T17:49:34.879Z,6.20
2018-06-25T17:50:34.761Z,5.40
2018-06-25T17:52:27.938Z,5.60
2018-06-25T17:53:27.841Z,4.80
2018-06-25T17:55:21.046Z,5.10
2018-06-25T17:56:20.913Z,6.70
2018-06-25T17:58:14.101Z,6.80
2018-06-25T17:59:13.997Z,6.00
2018-06-25T18:01:08.197Z,7.00
2018-06-25T18:02:08.075Z,5.30
2018-06-25T18:04:02.315Z,5.60
2018-06-25T18:05:02.195Z,4.70
2018-06-25T18:06:54.885Z,7.10
2018-06-25T18:07:54.766Z,7.00
2018-06-25T18:09:47.463Z,7.20
2018-06-25T18:10:47.348Z,6.10
2018-06-25T18:12:40.575Z,6.20
2018-06-25T18:13:40.454Z,6.40
2018-06-25T18:15:33.617Z,5.60
2018-06-25T18:16:33.513Z,5.80
2018-06-25T18:18:26.731Z,8.80
2018-06-25T18:19:26.609Z,5.00
2018-06-25T18:21:19.279Z,4.40
2018-06-25T18:22:19.184Z,6.30
2018-06-25T18:24:12.380Z,5.40
2018-06-25T18:25:12.260Z,6.90
2018-06-25T18:27:04.945Z,6.90
2018-06-25T18:28:04.841Z,8.20
2018-06-25T18:29:57.550Z,5.00
2018-06-25T18:30:57.426Z,6.80
2018-06-25T18:32:50.626Z,6.90
2018-06-25T18:33:50.518Z,6.00
2018-06-25T18:35:43.232Z,6.80
2018-06-25T18:36:43.099Z,7.90
2018-06-25T18:38:36.279Z,5.90
2018-06-25T18:39:36.177Z,6.30
2018-06-25T18:41:28.880Z,6.40
2018-06-25T18:42:28.834Z,7.10
2018-06-25T18:44:21.448Z,6.80
2018-06-25T18:45:21.343Z,8.20
2018-06-25T18:47:14.552Z,6.80
2018-06-25T18:48:14.422Z,7.10
2018-06-25T18:50:07.614Z,6.30
2018-06-25T18:51:07.548Z,5.50
2018-06-25T18:53:00.726Z,6.20
2018-06-25T18:54:00.599Z,7.00
2018-06-25T18:55:53.289Z,5.90
2018-06-25T18:56:53.186Z,5.20
2018-06-25T18:58:45.897Z,6.60
2018-06-25T18:59:45.773Z,8.40
2018-06-25T19:01:38.458Z,6.10
2018-06-25T19:02:38.361Z,6.30
2018-06-25T19:04:31.074Z,6.70
2018-06-25T19:05:30.944Z,6.30
2018-06-25T19:07:23.652Z,10.30
2018-06-25T19:08:23.537Z,5.90
2018-06-25T19:10:16.249Z,10.50
2018-06-25T19:11:16.129Z,7.00
2018-06-25T19:13:08.814Z,11.20
2018-06-25T19:14:08.711Z,9.50
2018-06-25T19:16:01.931Z,9.20
2018-06-25T19:17:01.816Z,9.10
2018-06-25T19:18:54.490Z,7.50
2018-06-25T19:19:54.388Z,7.20
2018-06-25T19:21:47.107Z,7.60
2018-06-25T19:22:46.978Z,7.40
2018-06-25T19:24:40.162Z,9.30
2018-06-25T19:25:40.060Z,8.60
2018-06-25T19:27:32.763Z,7.90
2018-06-25T19:28:32.632Z,11.10
2018-06-25T19:30:25.313Z,9.00
2018-06-25T19:31:25.214Z,9.90
2018-06-25T19:33:18.411Z,8.40
2018-06-25T19:34:18.287Z,8.00
2018-06-25T19:36:10.968Z,8.50
2018-06-25T19:37:10.868Z,9.80
2018-06-25T19:39:03.574Z,9.30
2018-06-25T19:40:03.467Z,9.60
2018-06-25T19:41:56.630Z,8.20
2018-06-25T19:42:56.525Z,10.80
2018-06-25T19:44:49.237Z,9.20
2018-06-25T19:45:49.110Z,10.70
2018-06-25T19:47:41.794Z,10.70
2018-06-25T19:48:41.701Z,12.20
2018-06-25T19:50:34.549Z,9.30
2018-06-25T19:51:34.269Z,9.40
2018-06-25T19:53:27.097Z,11.70
2018-06-25T19:54:26.852Z,10.80
2018-06-25T19:56:19.585Z,9.80
2018-06-25T19:57:19.442Z,8.70
2018-06-25T19:59:12.125Z,10.20
2018-06-25T20:00:12.018Z,10.30
2018-06-25T20:02:04.764Z,10.70
2018-06-25T20:03:04.627Z,9.70
2018-06-25T20:04:57.366Z,14.30
2018-06-25T20:05:57.274Z,10.10
2018-06-25T20:07:49.995Z,12.40
2018-06-25T20:08:49.848Z,9.30
2018-06-25T20:10:42.626Z,9.60
2018-06-25T20:11:42.525Z,11.00
2018-06-25T20:13:35.269Z,11.80
2018-06-25T20:14:35.253Z,12.70
2018-06-25T20:16:27.834Z,12.40
2018-06-25T20:17:27.723Z,11.40
2018-06-25T20:19:20.424Z,11.30
2018-06-25T20:20:20.300Z,12.20
2018-06-25T20:22:14.218Z,10.30
2018-06-25T20:23:13.979Z,10.10
2018-06-25T20:25:06.696Z,13.00
2018-06-25T20:26:06.653Z,9.80
2018-06-25T20:27:59.237Z,12.20
2018-06-25T20:28:59.137Z,11.90
2018-06-25T20:30:51.838Z,17.10
2018-06-25T20:31:51.719Z,12.20
2018-06-25T20:33:44.887Z,10.50
2018-06-25T20:34:44.784Z,11.10
2018-06-25T20:36:37.490Z,11.60
2018-06-25T20:37:37.363Z,11.20
2018-06-25T20:39:30.049Z,13.10
2018-06-25T20:40:29.948Z,12.70
2018-06-25T20:42:23.160Z,11.20
2018-06-25T20:43:23.319Z,11.70
2018-06-25T20:45:15.709Z,11.50
2018-06-25T20:46:15.611Z,13.30
2018-06-25T20:48:08.297Z,11.60
2018-06-25T20:49:08.178Z,10.70
2018-06-25T20:51:00.857Z,14.90
2018-06-25T20:52:00.749Z,12.20
2018-06-25T20:53:53.461Z,10.50
2018-06-25T20:54:53.338Z,11.50
2018-06-25T20:56:46.047Z,14.60
2018-06-25T20:57:45.908Z,13.30
2018-06-25T20:59:38.869Z,12.90
2018-06-25T21:00:38.492Z,12.00
2018-06-25T21:02:31.171Z,12.60
2018-06-25T21:03:31.376Z,11.60
2018-06-25T21:05:24.015Z,13.20
2018-06-25T21:06:24.091Z,14.60
2018-06-25T21:08:16.539Z,10.30
2018-06-25T21:09:16.433Z,12.70
2018-06-25T21:11:09.150Z,14.90
2018-06-25T21:12:09.016Z,10.20
2018-06-25T21:14:01.698Z,12.30
2018-06-25T21:15:01.651Z,11.10
2018-06-25T21:16:54.313Z,12.20
2018-06-25T21:17:54.172Z,12.80
2018-06-25T21:19:47.343Z,14.70
2018-06-25T21:20:47.243Z,16.10
2018-06-25T21:22:39.940Z,14.80
2018-06-25T21:23:39.817Z,13.10
2018-06-25T21:25:32.496Z,10.80
2018-06-25T21:26:32.390Z,14.10
2018-06-25T21:28:25.083Z,11.10
2018-06-25T21:29:24.966Z,12.10
2018-06-25T21:31:18.142Z,13.50
2018-06-25T21:32:18.029Z,12.90
2018-06-25T21:34:10.733Z,12.60
2018-06-25T21:35:10.604Z,11.00
2018-06-25T21:37:03.523Z,13.80
2018-06-25T21:38:03.198Z,11.30
2018-06-25T21:39:55.892Z,13.60
2018-06-25T21:40:55.766Z,14.70
2018-06-25T21:42:48.440Z,16.70
2018-06-25T21:43:48.341Z,12.90
2018-06-25T21:45:41.038Z,17.20
2018-06-25T21:46:40.910Z,16.10
2018-06-25T21:48:33.587Z,11.90
2018-06-25T21:49:33.479Z,11.70
2018-06-25T21:51:26.186Z,13.20
2018-06-25T21:52:26.050Z,11.00
2018-06-25T21:54:18.728Z,13.50
2018-06-25T21:55:18.626Z,15.80
2018-06-25T21:57:11.321Z,14.00
2018-06-25T21:58:11.198Z,15.50
2018-06-25T22:00:03.878Z,14.30
